createdAt,value
2017-10-30T00:02:07.097Z,2.23
2017-10-30T00:04:33.509Z,2.07
2017-10-30T00:07:00.646Z,2.77
2017-10-30T00:09:27.819Z,2.23
2017-10-30T00:11:54.207Z,3.23
2017-10-30T00:14:20.596Z,3.00
2017-10-30T00:16:46.991Z,2.40
2017-10-30T00:19:14.116Z,3.87
2017-10-30T00:21:40.503Z,2.80
2017-10-30T00:24:06.966Z,2.40
2017-10-30T00:26:33.432Z,2.90
2017-10-30T00:29:00.623Z,2.43
2017-10-30T00:31:27.012Z,2.73
2017-10-30T00:33:54.127Z,3.03
2017-10-30T00:36:20.498Z,2.40
2017-10-30T00:38:47.658Z,3.10
2017-10-30T00:41:14.813Z,3.30
2017-10-30T00:43:41.208Z,3.13
2017-10-30T00:46:07.643Z,2.83
2017-10-30T00:48:34.056Z,2.87
2017-10-30T00:51:00.454Z,2.80
2017-10-30T00:53:26.860Z,3.80
2017-10-30T00:55:53.995Z,2.47
2017-10-30T00:58:20.402Z,3.07
2017-10-30T01:00:46.804Z,2.40
2017-10-30T01:03:13.202Z,2.33
2017-10-30T01:05:40.326Z,3.13
2017-10-30T01:08:06.719Z,3.23
2017-10-30T01:10:33.112Z,3.20
2017-10-30T01:12:59.509Z,2.83
2017-10-30T01:15:25.881Z,3.57
2017-10-30T01:17:53.084Z,2.57
2017-10-30T01:20:19.523Z,2.37
2017-10-30T01:22:45.907Z,2.90
2017-10-30T01:25:13.053Z,2.90
2017-10-30T01:27:39.478Z,2.87
2017-10-30T01:30:06.671Z,2.47
2017-10-30T01:32:33.124Z,2.50
2017-10-30T01:34:59.547Z,2.50
2017-10-30T01:37:25.934Z,3.20
2017-10-30T01:39:53.088Z,2.50
2017-10-30T01:42:19.507Z,3.10
2017-10-30T01:44:45.910Z,2.60
2017-10-30T01:47:12.314Z,3.40
2017-10-30T01:49:38.748Z,2.90
2017-10-30T01:52:05.170Z,3.40
2017-10-30T01:54:31.604Z,2.37
2017-10-30T01:56:58.055Z,2.47
2017-10-30T01:59:24.514Z,3.13
2017-10-30T02:01:50.939Z,2.90
2017-10-30T02:04:17.335Z,2.70
2017-10-30T02:06:43.733Z,2.20
2017-10-30T02:09:10.895Z,2.73
2017-10-30T02:11:38.053Z,3.10
2017-10-30T02:14:05.216Z,2.83
2017-10-30T02:16:31.655Z,2.63
2017-10-30T02:18:58.088Z,3.20
2017-10-30T02:21:24.535Z,3.20
2017-10-30T02:23:50.962Z,4.10
2017-10-30T02:26:17.407Z,3.10
2017-10-30T02:28:43.815Z,3.03
2017-10-30T02:31:10.307Z,2.60
2017-10-30T02:33:37.502Z,2.93
2017-10-30T02:36:03.985Z,3.07
2017-10-30T02:38:31.181Z,4.13
2017-10-30T02:40:57.614Z,2.63
2017-10-30T02:43:24.054Z,2.63
2017-10-30T02:45:50.540Z,3.07
2017-10-30T02:48:16.967Z,3.07
2017-10-30T02:50:44.183Z,3.40
2017-10-30T02:53:10.673Z,3.03
2017-10-30T02:55:37.875Z,3.47
2017-10-30T02:58:04.309Z,2.43
2017-10-30T03:00:30.761Z,2.80
2017-10-30T03:02:57.230Z,2.57
2017-10-30T03:05:24.378Z,3.60
2017-10-30T03:07:51.554Z,2.30
2017-10-30T03:10:18.001Z,4.40
2017-10-30T03:12:44.424Z,3.10
2017-10-30T03:15:10.869Z,3.53
2017-10-30T03:17:37.298Z,2.90
2017-10-30T03:20:03.793Z,2.77
2017-10-30T03:22:30.999Z,3.00
2017-10-30T03:24:57.501Z,3.00
2017-10-30T03:27:23.965Z,3.07
2017-10-30T03:29:50.393Z,3.40
2017-10-30T03:32:16.892Z,3.37
2017-10-30T03:34:43.303Z,2.80
2017-10-30T03:37:09.739Z,2.87
2017-10-30T03:39:36.184Z,3.50
2017-10-30T03:42:03.335Z,4.70
2017-10-30T03:44:30.509Z,3.20
2017-10-30T03:46:56.957Z,2.50
2017-10-30T03:49:23.366Z,3.00
2017-10-30T03:51:49.834Z,3.03
2017-10-30T03:54:16.257Z,2.70
2017-10-30T03:56:42.674Z,2.20
2017-10-30T03:59:09.558Z,2.60
2017-10-30T04:01:36.006Z,4.20
2017-10-30T04:04:02.438Z,3.70
2017-10-30T04:06:28.879Z,3.60
2017-10-30T04:08:56.030Z,3.50
2017-10-30T04:11:23.192Z,3.67
2017-10-30T04:13:49.606Z,3.60
2017-10-30T04:16:15.998Z,2.70
2017-10-30T04:18:42.405Z,2.43
2017-10-30T04:21:08.783Z,2.60
2017-10-30T04:23:35.188Z,3.50
2017-10-30T04:26:01.571Z,3.03
2017-10-30T04:28:28.723Z,2.93
2017-10-30T04:30:55.879Z,2.87
2017-10-30T04:33:23.106Z,3.43
2017-10-30T04:35:49.554Z,3.37
2017-10-30T04:38:16.729Z,3.53
2017-10-30T04:40:43.873Z,3.43
2017-10-30T04:43:10.244Z,2.80
2017-10-30T04:45:36.622Z,3.20
2017-10-30T04:48:03.762Z,3.10
2017-10-30T04:50:30.163Z,2.80
2017-10-30T04:52:56.578Z,2.30
2017-10-30T04:55:22.968Z,2.60
2017-10-30T04:57:50.104Z,3.47
2017-10-30T05:00:17.971Z,4.00
2017-10-30T05:02:44.367Z,2.50
2017-10-30T05:05:10.775Z,2.87
2017-10-30T05:07:37.164Z,2.70
2017-10-30T05:10:03.588Z,2.47
2017-10-30T05:12:29.993Z,3.40
2017-10-30T05:14:56.399Z,3.30
2017-10-30T05:17:22.792Z,3.50
2017-10-30T05:19:49.188Z,2.90
2017-10-30T05:22:15.578Z,2.43
2017-10-30T05:24:42.711Z,3.80
2017-10-30T05:27:09.125Z,2.90
2017-10-30T05:29:35.534Z,3.60
2017-10-30T05:32:01.921Z,3.53
2017-10-30T05:34:29.147Z,3.37
2017-10-30T05:36:55.588Z,2.90
2017-10-30T05:39:21.986Z,2.43
2017-10-30T05:41:48.389Z,2.50
2017-10-30T05:44:14.810Z,2.47
2017-10-30T05:46:41.931Z,2.47
2017-10-30T05:49:08.327Z,2.63
2017-10-30T05:51:34.733Z,1.90
2017-10-30T05:54:01.168Z,2.57
2017-10-30T05:56:27.556Z,2.47
2017-10-30T05:58:54.004Z,2.20
2017-10-30T06:01:21.155Z,1.83
2017-10-30T06:03:48.289Z,4.43
2017-10-30T06:06:14.689Z,2.30
2017-10-30T06:08:41.072Z,2.27
2017-10-30T06:11:08.247Z,2.47
2017-10-30T06:13:34.668Z,2.43
2017-10-30T06:16:01.101Z,3.27
2017-10-30T06:18:27.507Z,3.13
2017-10-30T06:20:55.400Z,2.87
2017-10-30T06:23:21.783Z,2.83
2017-10-30T06:25:48.145Z,2.47
2017-10-30T06:28:15.318Z,2.90
2017-10-30T06:30:42.448Z,2.10
2017-10-30T06:33:09.627Z,2.40
2017-10-30T06:35:36.049Z,1.53
2017-10-30T06:38:02.488Z,1.97
2017-10-30T06:40:28.886Z,1.60
2017-10-30T06:42:56.158Z,2.07
2017-10-30T06:45:23.529Z,1.70
2017-10-30T06:47:49.927Z,1.80
2017-10-30T06:50:17.053Z,2.07
2017-10-30T06:52:44.946Z,1.80
2017-10-30T06:55:11.378Z,2.70
2017-10-30T06:57:38.554Z,1.73
2017-10-30T07:00:05.725Z,2.07
2017-10-30T07:02:32.181Z,1.73
2017-10-30T07:04:58.626Z,1.90
2017-10-30T07:07:25.031Z,1.87
2017-10-30T07:09:51.467Z,2.00
2017-10-30T07:12:17.876Z,2.87
2017-10-30T07:14:44.310Z,1.80
2017-10-30T07:17:10.768Z,1.53
2017-10-30T07:19:37.205Z,2.63
2017-10-30T07:22:03.663Z,2.17
2017-10-30T07:24:30.819Z,2.07
2017-10-30T07:26:58.011Z,1.73
2017-10-30T07:29:24.413Z,1.87
2017-10-30T07:31:51.717Z,1.67
2017-10-30T07:34:18.095Z,3.27
2017-10-30T07:36:45.236Z,1.60
2017-10-30T07:39:12.385Z,2.37
2017-10-30T07:41:39.540Z,2.30
2017-10-30T07:44:06.124Z,1.93
2017-10-30T07:46:32.541Z,1.80
2017-10-30T07:48:58.933Z,2.20
2017-10-30T07:51:25.384Z,2.20
2017-10-30T07:53:52.560Z,2.20
2017-10-30T07:56:19.016Z,2.90
2017-10-30T07:58:45.458Z,2.30
2017-10-30T08:01:11.914Z,2.70
2017-10-30T08:03:38.360Z,2.83
2017-10-30T08:06:05.542Z,2.20
2017-10-30T08:08:31.987Z,2.53
2017-10-30T08:10:58.409Z,2.77
2017-10-30T08:13:24.861Z,3.23
2017-10-30T08:15:51.303Z,2.90
2017-10-30T08:18:17.725Z,3.03
2017-10-30T08:20:44.166Z,2.77
2017-10-30T08:23:10.590Z,2.20
2017-10-30T08:25:37.068Z,2.07
2017-10-30T08:28:04.995Z,2.10
2017-10-30T08:30:31.405Z,1.97
2017-10-30T08:32:57.873Z,2.00
2017-10-30T08:35:24.325Z,1.67
2017-10-30T08:37:50.732Z,2.07
2017-10-30T08:40:17.183Z,2.63
2017-10-30T08:42:43.611Z,2.90
2017-10-30T08:45:10.066Z,3.10
2017-10-30T08:47:37.284Z,2.00
2017-10-30T08:50:03.651Z,2.10
2017-10-30T08:52:30.815Z,1.77
2017-10-30T08:54:58.007Z,4.57
2017-10-30T08:57:24.414Z,2.17
2017-10-30T08:59:50.886Z,1.70
2017-10-30T09:02:17.351Z,1.93
2017-10-30T09:04:43.818Z,2.30
2017-10-30T09:07:10.269Z,3.20
2017-10-30T09:09:36.708Z,2.07
2017-10-30T09:12:03.173Z,2.53
2017-10-30T09:14:29.619Z,2.10
2017-10-30T09:16:56.063Z,2.30
2017-10-30T09:19:23.262Z,1.80
2017-10-30T09:21:49.728Z,1.67
2017-10-30T09:24:16.992Z,1.80
2017-10-30T09:26:44.293Z,2.00
2017-10-30T09:29:10.780Z,1.77
2017-10-30T09:31:37.273Z,1.70
2017-10-30T09:34:04.743Z,1.90
2017-10-30T09:36:31.157Z,2.03
2017-10-30T09:38:57.625Z,2.23
2017-10-30T09:41:24.067Z,1.77
2017-10-30T09:43:50.501Z,1.97
2017-10-30T09:46:17.688Z,2.60
2017-10-30T09:48:44.132Z,2.03
2017-10-30T09:51:10.578Z,1.90
2017-10-30T09:53:37.049Z,2.43
2017-10-30T09:56:03.567Z,2.33
2017-10-30T09:58:30.850Z,2.63
2017-10-30T10:00:58.265Z,2.40
2017-10-30T10:03:24.751Z,2.23
2017-10-30T10:05:51.198Z,3.03
2017-10-30T10:08:17.697Z,1.93
2017-10-30T10:10:44.161Z,2.10
2017-10-30T10:13:10.601Z,2.20
2017-10-30T10:15:37.108Z,2.70
2017-10-30T10:18:04.280Z,2.50
2017-10-30T10:20:30.747Z,1.97
2017-10-30T10:22:57.223Z,1.87
2017-10-30T10:25:24.415Z,1.97
2017-10-30T10:27:50.879Z,2.20
2017-10-30T10:30:17.364Z,2.57
2017-10-30T10:32:43.804Z,2.00
2017-10-30T10:35:10.253Z,2.23
2017-10-30T10:37:36.745Z,2.30
2017-10-30T10:40:03.932Z,2.40
2017-10-30T10:42:30.382Z,2.27
2017-10-30T10:44:56.817Z,1.90
2017-10-30T10:47:23.258Z,1.87
2017-10-30T10:49:49.688Z,1.73
2017-10-30T10:52:16.121Z,1.23
2017-10-30T10:54:42.553Z,2.07
2017-10-30T10:57:08.979Z,1.50
2017-10-30T10:59:35.508Z,3.00
2017-10-30T11:02:01.935Z,1.70
2017-10-30T11:04:28.346Z,1.70
2017-10-30T11:06:54.740Z,1.67
2017-10-30T11:09:22.704Z,1.50
2017-10-30T11:11:50.595Z,1.63
2017-10-30T11:14:17.017Z,1.90
2017-10-30T11:16:43.440Z,1.47
2017-10-30T11:19:11.367Z,1.63
2017-10-30T11:21:37.841Z,1.87
2017-10-30T11:24:04.317Z,1.80
2017-10-30T11:26:30.761Z,2.00
2017-10-30T11:28:57.172Z,2.40
2017-10-30T11:31:24.318Z,2.00
2017-10-30T11:33:51.459Z,1.70
2017-10-30T11:36:18.595Z,2.30
2017-10-30T11:38:46.487Z,1.93
2017-10-30T11:41:13.648Z,1.80
2017-10-30T11:43:40.068Z,2.00
2017-10-30T11:46:06.489Z,1.70
2017-10-30T11:48:33.810Z,2.60
2017-10-30T11:51:00.263Z,1.67
2017-10-30T11:53:26.655Z,2.60
2017-10-30T11:55:53.085Z,1.57
2017-10-30T11:58:19.495Z,1.63
2017-10-30T12:00:45.929Z,1.90
2017-10-30T12:03:12.303Z,1.60
2017-10-30T12:05:38.716Z,1.90
2017-10-30T12:08:05.174Z,1.73
2017-10-30T12:10:32.311Z,2.70
2017-10-30T12:12:58.747Z,3.90
2017-10-30T12:15:25.155Z,2.57
2017-10-30T12:17:51.573Z,1.43
2017-10-30T12:20:18.005Z,1.83
2017-10-30T12:22:45.167Z,1.50
2017-10-30T12:25:11.570Z,2.03
2017-10-30T12:27:38.728Z,1.70
2017-10-30T12:30:05.148Z,1.50
2017-10-30T12:32:32.295Z,1.37
2017-10-30T12:34:59.428Z,2.07
2017-10-30T12:37:26.599Z,2.00
2017-10-30T12:39:53.767Z,2.10
2017-10-30T12:42:20.173Z,1.83
2017-10-30T12:44:47.339Z,1.73
2017-10-30T12:47:14.485Z,1.60
2017-10-30T12:49:40.886Z,1.40
2017-10-30T12:52:07.320Z,1.70
2017-10-30T12:54:33.739Z,1.40
2017-10-30T12:57:00.203Z,1.33
2017-10-30T12:59:27.344Z,1.60
2017-10-30T13:01:55.312Z,1.43
2017-10-30T13:04:23.223Z,1.80
2017-10-30T13:06:49.654Z,1.60
2017-10-30T13:09:16.138Z,3.03
2017-10-30T13:11:43.362Z,1.40
2017-10-30T13:14:09.781Z,1.40
2017-10-30T13:16:36.224Z,1.90
2017-10-30T13:19:02.694Z,1.50
2017-10-30T13:21:29.132Z,1.47
2017-10-30T13:23:55.555Z,2.13
2017-10-30T13:26:22.745Z,1.63
2017-10-30T13:28:49.880Z,2.37
2017-10-30T13:31:17.018Z,1.60
2017-10-30T13:33:44.171Z,1.67
2017-10-30T13:36:11.386Z,1.57
2017-10-30T13:38:37.808Z,1.90
2017-10-30T13:41:04.217Z,2.00
2017-10-30T13:43:30.611Z,1.60
2017-10-30T13:45:57.753Z,2.10
2017-10-30T13:48:24.195Z,1.90
2017-10-30T13:50:51.308Z,2.50
2017-10-30T13:53:17.725Z,2.20
2017-10-30T13:55:44.149Z,1.80
2017-10-30T13:58:10.539Z,1.77
2017-10-30T14:00:37.010Z,2.40
2017-10-30T14:03:03.446Z,2.10
2017-10-30T14:05:29.843Z,2.10
2017-10-30T14:07:56.251Z,2.00
2017-10-30T14:10:24.151Z,1.60
2017-10-30T14:12:52.496Z,1.40
2017-10-30T14:15:18.893Z,1.43
2017-10-30T14:17:45.309Z,1.53
2017-10-30T14:20:12.438Z,2.00
2017-10-30T14:22:38.874Z,2.20
2017-10-30T14:25:06.029Z,1.83
2017-10-30T14:27:33.222Z,2.13
2017-10-30T14:29:59.699Z,1.00
2017-10-30T14:32:26.121Z,1.53
2017-10-30T14:34:52.572Z,1.20
2017-10-30T14:37:19.048Z,1.60
2017-10-30T14:39:45.488Z,1.33
2017-10-30T14:42:11.989Z,1.47
2017-10-30T14:44:38.436Z,1.30
2017-10-30T14:47:04.900Z,1.20
2017-10-30T14:49:31.373Z,1.30
2017-10-30T14:51:57.884Z,1.30
2017-10-30T14:54:24.295Z,1.57
2017-10-30T14:56:50.743Z,2.57
2017-10-30T14:59:17.161Z,1.80
2017-10-30T15:01:43.593Z,1.60
2017-10-30T15:04:10.067Z,1.63
2017-10-30T15:06:37.979Z,1.70
2017-10-30T15:09:04.421Z,1.80
2017-10-30T15:11:30.850Z,1.20
2017-10-30T15:13:57.287Z,2.87
2017-10-30T15:16:23.710Z,1.63
2017-10-30T15:18:50.134Z,2.10
2017-10-30T15:21:16.583Z,1.73
2017-10-30T15:23:43.006Z,1.80
2017-10-30T15:26:09.496Z,1.53
2017-10-30T15:28:37.404Z,2.60
2017-10-30T15:31:03.884Z,1.90
2017-10-30T15:33:31.075Z,2.00
2017-10-30T15:35:58.296Z,2.07
2017-10-30T15:38:25.485Z,1.57
2017-10-30T15:40:51.899Z,1.37
2017-10-30T15:43:19.203Z,2.10
2017-10-30T15:45:45.666Z,1.87
2017-10-30T15:48:13.038Z,2.03
2017-10-30T15:50:39.468Z,1.97
2017-10-30T15:53:05.898Z,2.00
2017-10-30T15:55:32.286Z,2.00
2017-10-30T15:57:58.742Z,2.03
2017-10-30T16:00:25.142Z,1.87
2017-10-30T16:02:51.545Z,1.97
2017-10-30T16:05:17.975Z,2.03
2017-10-30T16:07:45.109Z,2.43
2017-10-30T16:10:12.281Z,2.20
2017-10-30T16:12:39.403Z,2.20
2017-10-30T16:15:05.799Z,2.93
2017-10-30T16:17:32.200Z,2.10
2017-10-30T16:19:58.570Z,2.20
2017-10-30T16:22:25.640Z,1.80
2017-10-30T16:24:52.043Z,2.70
2017-10-30T16:27:18.444Z,2.70
2017-10-30T16:29:44.873Z,2.27
2017-10-30T16:32:11.344Z,2.37
2017-10-30T16:34:37.766Z,17.03
2017-10-30T16:37:04.527Z,16.70
2017-10-30T16:39:30.991Z,5.00
2017-10-30T16:44:31.863Z,6.60
2017-10-30T16:46:58.452Z,8.40
2017-10-30T16:49:25.662Z,5.10
2017-10-30T16:51:52.059Z,5.23
2017-10-30T16:54:18.479Z,6.57
2017-10-30T16:56:44.926Z,4.30
2017-10-30T16:59:12.122Z,4.90
2017-10-30T17:01:38.610Z,3.10
2017-10-30T17:04:05.827Z,3.60
2017-10-30T17:06:32.203Z,4.13
2017-10-30T17:08:59.336Z,3.70
2017-10-30T17:11:27.215Z,2.80
2017-10-30T17:13:53.608Z,2.83
2017-10-30T17:16:20.012Z,2.83
2017-10-30T17:18:46.371Z,2.30
2017-10-30T17:21:12.771Z,2.50
2017-10-30T17:23:39.163Z,3.17
2017-10-30T17:26:05.560Z,3.10
2017-10-30T17:28:31.962Z,2.70
2017-10-30T17:30:58.417Z,3.20
2017-10-30T17:33:24.807Z,2.70
2017-10-30T17:35:51.910Z,2.23
2017-10-30T17:38:18.310Z,2.73
2017-10-30T17:40:44.720Z,2.70
2017-10-30T17:43:11.863Z,3.10
2017-10-30T17:45:39.763Z,2.70
2017-10-30T17:48:06.178Z,2.87
2017-10-30T17:50:33.367Z,5.57
2017-10-30T17:52:59.812Z,8.50
2017-10-30T17:55:26.292Z,5.57
2017-10-30T17:57:53.413Z,6.20
2017-10-30T18:00:19.821Z,5.43
2017-10-30T18:02:46.233Z,7.20
2017-10-30T18:05:12.617Z,4.17
2017-10-30T18:07:39.070Z,2.33
2017-10-30T18:10:06.220Z,2.90
2017-10-30T18:12:33.357Z,2.20
2017-10-30T18:14:59.868Z,2.93
2017-10-30T18:17:26.292Z,2.93
2017-10-30T18:19:52.675Z,2.80
2017-10-30T18:22:25.888Z,2.40
2017-10-30T18:24:52.302Z,5.37
2017-10-30T18:27:19.590Z,2.90
2017-10-30T18:29:45.981Z,2.47
2017-10-30T18:32:13.105Z,2.67
2017-10-30T18:34:41.008Z,7.47
2017-10-30T18:37:07.395Z,3.87
2017-10-30T18:39:33.783Z,2.97
2017-10-30T18:42:00.917Z,2.40
2017-10-30T18:44:28.827Z,2.60
2017-10-30T18:46:55.260Z,3.00
2017-10-30T18:49:21.659Z,2.70
2017-10-30T18:51:48.044Z,3.10
2017-10-30T18:54:15.933Z,3.20
2017-10-30T18:56:43.083Z,2.60
2017-10-30T18:59:10.211Z,2.70
2017-10-30T19:01:36.615Z,3.33
2017-10-30T19:04:02.984Z,4.00
2017-10-30T19:06:30.115Z,5.00
2017-10-30T19:08:58.268Z,4.20
2017-10-30T19:11:24.818Z,6.60
2017-10-30T19:13:51.198Z,5.93
2017-10-30T19:16:17.599Z,6.63
2017-10-30T19:18:44.025Z,4.80
2017-10-30T19:21:10.432Z,4.93
2017-10-30T19:23:36.887Z,5.20
2017-10-30T19:26:03.301Z,4.57
2017-10-30T19:28:30.615Z,4.20
2017-10-30T19:30:57.003Z,3.63
2017-10-30T19:33:23.419Z,4.40
2017-10-30T19:35:49.832Z,2.93
2017-10-30T19:38:16.219Z,4.80
2017-10-30T19:40:43.331Z,4.00
2017-10-30T19:43:09.732Z,5.00
2017-10-30T19:45:36.135Z,3.70
2017-10-30T19:48:03.296Z,3.07
2017-10-30T19:50:30.411Z,3.60
2017-10-30T19:52:56.799Z,3.27
2017-10-30T19:55:23.344Z,3.50
2017-10-30T19:57:49.746Z,3.53
2017-10-30T20:00:16.911Z,3.67
2017-10-30T20:02:44.371Z,3.00
2017-10-30T20:05:16.971Z,4.30
2017-10-30T20:07:49.396Z,4.13
2017-10-30T20:10:34.551Z,3.90
2017-10-30T20:13:00.964Z,4.03
2017-10-30T20:15:28.119Z,3.10
2017-10-30T20:17:54.599Z,3.70
2017-10-30T20:20:20.990Z,3.00
2017-10-30T20:22:47.399Z,3.77
2017-10-30T20:25:13.809Z,3.90
2017-10-30T20:27:40.236Z,4.30
2017-10-30T20:30:06.633Z,9.90
2017-10-30T20:32:33.019Z,10.20
2017-10-30T20:34:59.437Z,5.93
2017-10-30T20:37:25.841Z,7.43
2017-10-30T20:39:52.224Z,7.33
2017-10-30T20:42:18.631Z,6.83
2017-10-30T20:44:45.028Z,5.60
2017-10-30T20:47:11.416Z,4.33
2017-10-30T20:49:37.829Z,4.00
2017-10-30T20:52:04.224Z,3.43
2017-10-30T20:54:32.108Z,4.13
2017-10-30T20:56:59.263Z,3.60
2017-10-30T20:59:25.737Z,3.43
2017-10-30T21:01:52.136Z,3.77
2017-10-30T21:04:18.569Z,3.53
2017-10-30T21:06:44.947Z,3.53
2017-10-30T21:09:11.338Z,3.67
2017-10-30T21:11:37.727Z,3.60
2017-10-30T21:14:04.136Z,3.47
2017-10-30T21:16:30.524Z,3.70
2017-10-30T21:18:57.685Z,4.10
2017-10-30T21:21:24.077Z,3.23
2017-10-30T21:23:50.450Z,3.50
2017-10-30T21:26:16.863Z,3.50
2017-10-30T21:28:43.276Z,3.93
2017-10-30T21:31:10.490Z,3.33
2017-10-30T21:33:36.915Z,4.33
2017-10-30T21:36:03.326Z,4.33
2017-10-30T21:38:29.727Z,5.00
2017-10-30T21:40:56.100Z,3.60
2017-10-30T21:43:22.481Z,3.73
2017-10-30T21:45:48.883Z,3.70
2017-10-30T21:48:15.323Z,3.97
2017-10-30T21:50:41.716Z,3.90
2017-10-30T21:53:08.104Z,3.80
2017-10-30T21:55:34.538Z,4.10
2017-10-30T21:58:00.947Z,3.87
2017-10-30T22:00:27.349Z,3.60
2017-10-30T22:02:54.160Z,3.67
2017-10-30T22:05:20.533Z,3.70
2017-10-30T22:07:46.931Z,3.93
2017-10-30T22:10:14.420Z,4.50
2017-10-30T22:12:40.838Z,4.10
2017-10-30T22:15:07.263Z,3.23
2017-10-30T22:17:39.712Z,4.37
2017-10-30T22:20:07.031Z,3.30
2017-10-30T22:22:33.537Z,3.43
2017-10-30T22:24:59.952Z,3.87
2017-10-30T22:27:27.095Z,3.83
2017-10-30T22:29:54.218Z,4.33
2017-10-30T22:32:20.610Z,3.53
2017-10-30T22:34:47.007Z,4.30
2017-10-30T22:37:14.151Z,3.23
2017-10-30T22:39:41.283Z,3.10
2017-10-30T22:42:07.711Z,3.43
2017-10-30T22:44:34.090Z,3.40
2017-10-30T22:47:00.489Z,3.43
2017-10-30T22:49:26.884Z,3.10
2017-10-30T22:51:53.279Z,3.47
2017-10-30T22:54:20.409Z,3.47
2017-10-30T22:56:46.791Z,3.13
2017-10-30T22:59:13.197Z,3.70
2017-10-30T23:01:39.607Z,4.00
2017-10-30T23:04:06.027Z,3.17
2017-10-30T23:06:32.421Z,3.00
2017-10-30T23:08:58.832Z,3.97
2017-10-30T23:11:25.219Z,3.73
2017-10-30T23:13:51.650Z,4.80
2017-10-30T23:16:18.031Z,4.67
2017-10-30T23:18:44.426Z,4.23
2017-10-30T23:21:10.819Z,3.50
2017-10-30T23:23:37.326Z,3.90
2017-10-30T23:26:03.727Z,3.60
2017-10-30T23:28:30.841Z,3.70
2017-10-30T23:30:57.252Z,3.47
2017-10-30T23:33:23.657Z,3.80
2017-10-30T23:35:50.774Z,3.77
2017-10-30T23:38:17.161Z,3.17
2017-10-30T23:40:43.536Z,3.60
2017-10-30T23:43:09.951Z,3.00
2017-10-30T23:45:36.339Z,3.87
2017-10-30T23:48:03.499Z,3.30
2017-10-30T23:50:29.887Z,3.67
2017-10-30T23:52:56.251Z,4.17
2017-10-30T23:55:23.376Z,3.83
2017-10-30T23:57:49.772Z,4.00
